Time;durP1;ratioP1;P1;durP2;ratioP2;P2;SDS_P1;SDS_P2;PMS_P1;PMS_P2;Temp;Humidity;BMP_temperature;BMP_pressure;BME280_temperature;BME280_humidity;BME280_pressure;Samples;Min_cycle;Max_cycle;Signal;HPM_P1;HPM_P2
2023/10/13 00:02:22;;;;;;;15.70;2.70;;;;;;;11.95;62.38;101273.28;107452;1255;112359;-63
2023/10/13 00:04:50;;;;;;;11.10;2.50;;;;;;;11.97;62.38;101267.96;107588;1254;108777;-63
2023/10/13 00:07:19;;;;;;;17.00;2.70;;;;;;;11.98;62.42;101269.13;107551;1256;107257;-64
2023/10/13 00:09:47;;;;;;;8.90;2.60;;;;;;;12.00;62.49;101270.57;107566;1254;99183;-63
2023/10/13 00:12:20;;;;;;;10.10;2.40;;;;;;;12.01;62.44;101273.00;107580;1255;99736;-66
2023/10/13 00:14:50;;;;;;;10.10;2.50;;;;;;;12.03;62.45;101273.92;107555;1255;112618;-63
2023/10/13 00:17:20;;;;;;;16.40;2.80;;;;;;;12.04;62.33;101279.02;107576;1254;109231;-63
2023/10/13 00:19:52;;;;;;;13.50;2.90;;;;;;;12.02;62.41;101272.16;107537;1254;107762;-63
2023/10/13 00:22:22;;;;;;;13.60;2.60;;;;;;;12.01;62.55;101271.02;107578;1251;99233;-63
2023/10/13 00:24:54;;;;;;;17.50;3.60;;;;;;;12.00;62.39;101265.67;107574;1254;99189;-62
2023/10/13 00:27:29;;;;;;;13.30;2.90;;;;;;;12.00;62.47;101266.59;107574;1253;112796;-65
2023/10/13 00:32:56;;;;;;;11.40;2.50;;;;;;;12.04;62.60;101271.69;107550;1253;108714;-63
2023/10/13 00:35:35;;;;;;;15.70;3.00;;;;;;;12.05;62.70;101273.03;107517;1254;99227;-62
2023/10/13 00:38:12;;;;;;;15.40;3.50;;;;;;;12.05;62.61;101267.81;107550;1253;99199;-63
2023/10/13 00:40:44;;;;;;;10.40;2.50;;;;;;;12.03;62.58;101267.25;107595;1252;111924;-64
2023/10/13 00:46:56;;;;;;;12.60;2.70;;;;;;;11.99;62.71;101273.02;107579;1251;106668;-63
2023/10/13 00:48:54;;;;;;;4.70;2.10;;;;;;;11.98;62.66;101276.64;107470;1253;99070;-65
2023/10/13 00:51:34;;;;;;;14.80;2.50;;;;;;;11.97;62.73;101279.27;107526;1251;99710;-65
2023/10/13 00:54:11;;;;;;;10.30;2.80;;;;;;;11.97;62.91;101278.95;107584;1251;112437;-66
2023/10/13 00:56:53;;;;;;;14.30;2.40;;;;;;;11.97;62.99;101284.86;107587;1252;108594;-66
2023/10/13 00:59:25;;;;;;;15.20;2.70;;;;;;;11.98;62.93;101295.71;107533;1254;107591;-64
2023/10/13 01:01:55;;;;;;;10.70;2.30;;;;;;;11.96;63.23;101295.34;107514;1254;99185;-65
2023/10/13 01:04:28;;;;;;;13.90;2.40;;;;;;;11.90;63.06;101299.05;107563;1254;99729;-63
2023/10/13 01:06:56;;;;;;;8.70;3.00;;;;;;;11.88;63.09;101301.92;107589;1251;112870;-62
2023/10/13 01:09:25;;;;;;;9.60;2.70;;;;;;;11.89;63.24;101305.05;107553;1252;108810;-63
2023/10/13 01:11:54;;;;;;;17.60;2.60;;;;;;;11.88;63.27;101302.45;107522;1251;107040;-63
2023/10/13 01:14:27;;;;;;;6.60;2.30;;;;;;;11.88;63.18;101302.13;107536;1254;99194;-63
2023/10/13 01:16:58;;;;;;;5.70;2.50;;;;;;;11.85;63.31;101300.05;107585;1254;99083;-62
2023/10/13 01:19:28;;;;;;;12.90;3.00;;;;;;;11.79;63.24;101298.08;107599;1253;113094;-63
2023/10/13 01:22:04;;;;;;;12.30;2.60;;;;;;;11.75;63.36;101299.30;107594;1251;109952;-63
2023/10/13 01:24:35;;;;;;;12.20;2.90;;;;;;;11.71;63.45;101300.15;107584;1254;107325;-63
2023/10/13 01:27:20;;;;;;;10.00;3.00;;;;;;;11.67;63.52;101305.17;107564;1255;99269;-63
2023/10/13 01:29:50;;;;;;;18.10;2.30;;;;;;;11.63;63.54;101309.95;107622;1254;99226;-63
2023/10/13 01:32:22;;;;;;;9.10;2.50;;;;;;;11.61;63.54;101317.51;107618;1254;111521;-64
2023/10/13 01:34:55;;;;;;;14.60;2.70;;;;;;;11.59;63.41;101321.05;107597;1254;109913;-63
2023/10/13 01:37:24;;;;;;;11.20;2.50;;;;;;;11.58;63.67;101318.29;107551;1254;108718;-63
2023/10/13 01:39:52;;;;;;;9.20;2.60;;;;;;;11.53;63.97;101323.16;107491;1253;99195;-63
2023/10/13 01:42:21;;;;;;;6.80;2.20;;;;;;;11.52;64.08;101324.01;107603;1256;99294;-63
2023/10/13 01:44:51;;;;;;;8.90;1.90;;;;;;;11.50;64.17;101316.43;107527;1253;112530;-63
2023/10/13 01:47:20;;;;;;;16.80;2.90;;;;;;;11.50;64.21;101318.24;107552;1254;108312;-63
2023/10/13 01:49:50;;;;;;;14.50;2.90;;;;;;;11.50;64.45;101314.10;107371;1254;108302;-63
2023/10/13 01:52:19;;;;;;;16.40;2.30;;;;;;;11.52;64.61;101312.73;107543;1253;99190;-62
2023/10/13 01:54:51;;;;;;;16.40;2.90;;;;;;;11.52;64.74;101317.32;107532;1253;99818;-63
2023/10/13 01:57:23;;;;;;;14.30;2.30;;;;;;;11.55;64.84;101318.16;107517;1254;113527;-63
2023/10/13 01:59:54;;;;;;;15.40;2.70;;;;;;;11.58;65.00;101319.67;107462;1253;109896;-64
2023/10/13 02:02:28;;;;;;;11.00;1.90;;;;;;;11.63;65.08;101322.60;107534;1254;109033;-64
2023/10/13 02:05:00;;;;;;;14.20;2.60;;;;;;;11.66;65.04;101321.06;107591;1255;99217;-63
2023/10/13 02:07:34;;;;;;;17.70;3.00;;;;;;;11.65;65.11;101318.05;107562;1253;99138;-63
2023/10/13 02:10:05;;;;;;;17.10;2.50;;;;;;;11.64;65.04;101314.04;107601;1254;113787;-64
2023/10/13 02:12:42;;;;;;;15.50;2.90;;;;;;;11.64;65.08;101314.44;107542;1253;108996;-62
2023/10/13 02:15:21;;;;;;;9.40;2.60;;;;;;;11.63;65.13;101316.98;107606;1255;108580;-63
2023/10/13 02:17:51;;;;;;;21.60;3.80;;;;;;;11.63;65.00;101319.67;107586;1254;99355;-64
2023/10/13 02:20:30;;;;;;;9.00;2.90;;;;;;;11.62;64.99;101322.29;107526;1252;99100;-63
2023/10/13 02:22:59;;;;;;;13.80;2.70;;;;;;;11.61;65.10;101320.94;107520;1254;113601;-64
2023/10/13 02:25:42;;;;;;;8.90;2.10;;;;;;;11.58;65.49;101317.54;107615;1254;108548;-65
2023/10/13 02:28:15;;;;;;;17.50;2.50;;;;;;;11.55;65.33;101312.44;107564;1254;108740;-64
2023/10/13 02:30:44;;;;;;;13.00;2.80;;;;;;;11.55;65.33;101311.02;107570;1254;99091;-64
2023/10/13 02:33:14;;;;;;;9.80;2.60;;;;;;;11.55;65.59;101314.20;107593;1251;99081;-62
2023/10/13 02:35:50;;;;;;;16.60;2.70;;;;;;;11.56;65.73;101332.44;107576;1253;112706;-64
2023/10/13 02:38:28;;;;;;;9.60;2.30;;;;;;;11.54;65.56;101348.80;107535;1253;110225;-63
2023/10/13 02:41:05;;;;;;;10.80;3.00;;;;;;;11.53;65.65;101352.13;107584;1252;108302;-63
2023/10/13 02:43:35;;;;;;;15.20;2.60;;;;;;;11.54;65.69;101350.75;107570;1253;99181;-63
2023/10/13 02:46:04;;;;;;;7.90;2.30;;;;;;;11.55;65.69;101350.02;107555;1253;99921;-64
2023/10/13 02:48:45;;;;;;;10.80;3.10;;;;;;;11.55;65.98;101348.58;107496;1254;113503;-64
2023/10/13 02:51:17;;;;;;;18.70;2.50;;;;;;;11.55;65.87;101357.52;107575;1251;109102;-62
2023/10/13 02:53:49;;;;;;;13.70;2.40;;;;;;;11.55;66.01;101362.50;107557;1252;108655;-64
2023/10/13 02:56:22;;;;;;;20.60;2.90;;;;;;;11.55;65.89;101360.40;107557;1256;99175;-63
2023/10/13 02:58:53;;;;;;;16.60;2.60;;;;;;;11.54;66.12;101363.01;107643;1254;99066;-64
2023/10/13 03:01:28;;;;;;;10.40;3.90;;;;;;;11.50;66.10;101371.61;107625;1256;112572;-63
2023/10/13 03:03:58;;;;;;;15.70;3.70;;;;;;;11.46;65.88;101376.96;107537;1254;109862;-63
2023/10/13 03:06:39;;;;;;;14.80;2.80;;;;;;;11.43;66.00;101376.85;107563;1254;108262;-62
2023/10/13 03:09:14;;;;;;;10.40;2.50;;;;;;;11.35;66.07;101380.38;107571;1253;99243;-63
2023/10/13 03:11:48;;;;;;;12.30;3.10;;;;;;;11.32;66.25;101384.02;107616;1255;99274;-63
2023/10/13 03:14:24;;;;;;;11.80;2.40;;;;;;;11.32;66.48;101388.02;107588;1254;112213;-63
2023/10/13 03:16:55;;;;;;;7.50;2.20;;;;;;;11.31;66.44;101387.16;107539;1253;109941;-64
2023/10/13 03:19:30;;;;;;;15.10;2.50;;;;;;;11.30;66.50;101383.81;107494;1253;107064;-64
2023/10/13 03:22:12;;;;;;;12.90;2.60;;;;;;;11.30;66.64;101378.42;107576;1253;99183;-62
2023/10/13 03:24:46;;;;;;;12.20;2.50;;;;;;;11.31;66.70;101374.27;107611;1254;99066;-64
2023/10/13 03:27:23;;;;;;;13.80;2.70;;;;;;;11.31;66.72;101372.25;107567;1254;113418;-63
2023/10/13 03:29:54;;;;;;;14.10;2.60;;;;;;;11.32;66.95;101368.76;107554;1253;110945;-63
2023/10/13 03:32:26;;;;;;;10.70;2.40;;;;;;;11.33;66.89;101379.06;107574;1252;107555;-63
2023/10/13 03:35:11;;;;;;;10.30;2.10;;;;;;;11.34;67.22;101382.67;107571;1254;99256;-62
2023/10/13 03:37:40;;;;;;;4.90;2.40;;;;;;;11.32;67.04;101376.35;107555;1251;99732;-63
2023/10/13 03:43:04;;;;;;;10.70;2.30;;;;;;;11.34;67.13;101375.21;107557;1251;110239;-63
2023/10/13 03:45:38;;;;;;;10.60;3.00;;;;;;;11.34;67.23;101380.48;107610;1253;108551;-62
2023/10/13 03:51:03;;;;;;;7.90;2.50;;;;;;;11.28;67.51;101391.70;107614;1253;99849;-63
2023/10/13 03:53:52;;;;;;;10.60;3.20;;;;;;;11.25;67.52;101391.19;107529;1255;111710;-63
2023/10/13 03:56:26;;;;;;;18.20;3.70;;;;;;;11.26;67.52;101388.96;107560;1251;110174;-62
2023/10/13 03:59:05;;;;;;;21.40;4.30;;;;;;;11.30;67.77;101395.55;107543;1251;108286;-63
2023/10/13 04:04:15;;;;;;;18.40;3.30;;;;;;;11.32;67.87;101396.27;107587;1251;99198;-63
2023/10/13 04:17:29;;;;;;;21.80;5.10;;;;;;;11.32;67.82;101414.18;107483;1252;99073;-63
2023/10/13 04:36:14;;;;;;;22.90;3.80;;;;;;;11.45;67.97;101448.84;107563;1254;109688;-63
2023/10/13 04:41:31;;;;;;;14.20;3.80;;;;;;;11.51;67.97;101460.27;107540;1256;99275;-64
2023/10/13 04:57:46;;;;;;;16.60;4.40;;;;;;;11.67;67.92;101447.80;107560;1254;100197;-63
2023/10/13 05:44:33;;;;;;;18.60;4.20;;;;;;;12.06;68.69;101480.02;107486;1254;109919;-63
2023/10/13 05:49:50;;;;;;;35.20;5.00;;;;;;;12.14;68.45;101483.45;107475;1254;99173;-63
2023/10/13 05:52:19;;;;;;;24.80;5.60;;;;;;;12.19;68.47;101489.23;107429;1254;99206;-63
2023/10/13 06:31:05;;;;;;;39.20;9.40;;;;;;;13.17;64.64;101562.79;107526;1254;99185;-62
2023/10/13 06:33:34;;;;;;;31.10;9.30;;;;;;;13.22;64.30;101560.88;107619;1254;99283;-63
2023/10/13 06:36:09;;;;;;;30.00;9.60;;;;;;;13.27;63.67;101561.17;107581;1253;111807;-62
2023/10/13 06:38:38;;;;;;;33.20;9.00;;;;;;;13.27;63.27;101557.05;107555;1254;110156;-62
2023/10/13 06:41:07;;;;;;;25.60;8.90;;;;;;;13.27;62.81;101555.06;107517;1253;108190;-62
2023/10/13 06:43:45;;;;;;;20.60;7.20;;;;;;;13.28;62.53;101561.13;107449;1254;99197;-62
2023/10/13 06:46:23;;;;;;;24.80;9.50;;;;;;;13.30;62.78;101559.86;107461;1256;99256;-63
2023/10/13 06:48:52;;;;;;;26.00;8.50;;;;;;;13.34;62.48;101563.48;107496;1253;111699;-63
2023/10/13 06:51:22;;;;;;;35.50;8.40;;;;;;;13.38;62.37;101562.04;107578;1254;109257;-62
2023/10/13 06:53:56;;;;;;;26.90;9.40;;;;;;;13.43;62.43;101565.58;107515;1253;109188;-63
2023/10/13 06:56:29;;;;;;;28.00;8.90;;;;;;;13.52;62.37;101567.33;107530;1254;99185;-62
2023/10/13 06:59:04;;;;;;;35.20;8.70;;;;;;;13.62;62.31;101572.23;107516;1254;99188;-63
2023/10/13 07:01:40;;;;;;;25.60;9.60;;;;;;;13.71;62.32;101575.17;107512;1253;112217;-63
2023/10/13 07:04:13;;;;;;;28.20;9.30;;;;;;;13.80;62.18;101581.05;107522;1254;110027;-63
2023/10/13 07:06:48;;;;;;;39.80;9.30;;;;;;;13.87;61.66;101577.05;107568;1253;108549;-63
2023/10/13 07:12:26;;;;;;;25.20;8.50;;;;;;;14.04;61.43;101581.83;107274;1254;99723;-63
2023/10/13 07:15:05;;;;;;;43.00;10.50;;;;;;;14.12;61.23;101582.73;107540;1251;114682;-62
2023/10/13 07:17:37;;;;;;;38.90;9.60;;;;;;;14.21;61.20;101586.02;107490;1254;109779;-62
2023/10/13 07:20:23;;;;;;;34.40;8.90;;;;;;;14.25;60.56;101595.05;107507;1252;108248;-63
2023/10/13 07:23:02;;;;;;;32.80;9.60;;;;;;;14.28;60.35;101597.17;107520;1254;99190;-63
2023/10/13 07:25:37;;;;;;;33.30;9.50;;;;;;;14.31;60.25;101597.05;107561;1254;99353;-63
2023/10/13 07:28:09;;;;;;;30.20;10.20;;;;;;;14.30;59.89;101601.30;107567;1254;113109;-62
2023/10/13 07:31:26;;;;;;;34.00;10.10;;;;;;;14.31;60.15;101600.10;107566;1254;109698;-63
2023/10/13 07:33:31;;;;;;;29.90;11.00;;;;;;;14.34;59.75;101595.12;107505;1254;106683;-65
2023/10/13 07:36:14;;;;;;;29.20;9.70;;;;;;;14.33;59.30;101603.23;107601;1254;99070;-64
2023/10/13 07:39:09;;;;;;;32.20;8.90;;;;;;;14.30;59.27;101604.31;107532;1253;100101;-65
2023/10/13 07:42:03;;;;;;;31.70;9.50;;;;;;;14.35;59.34;101609.88;107567;1254;113361;-63
2023/10/13 07:44:34;;;;;;;24.80;8.80;;;;;;;14.45;59.28;101609.35;107490;1254;110114;-63
2023/10/13 07:47:07;;;;;;;32.60;10.10;;;;;;;14.57;59.29;101606.57;107545;1254;107640;-64
2023/10/13 07:49:39;;;;;;;31.40;9.70;;;;;;;14.71;59.00;101602.95;107513;1255;99904;-63
2023/10/13 07:55:10;;;;;;;25.40;10.30;;;;;;;15.00;58.76;101612.80;107519;1254;113505;-63
2023/10/13 07:57:53;;;;;;;40.80;10.80;;;;;;;15.15;58.69;101616.45;107569;1251;108811;-62
2023/10/13 08:00:38;;;;;;;42.10;15.30;;;;;;;15.28;58.64;101614.83;107529;1254;107727;-62
2023/10/13 08:08:40;;;;;;;39.30;10.40;;;;;;;15.52;58.18;101628.25;107596;1256;111724;-63
2023/10/13 08:11:54;;;;;;;37.80;11.20;;;;;;;15.52;57.57;101631.73;107599;1254;108939;-64
2023/10/13 08:14:11;;;;;;;40.00;11.10;;;;;;;15.51;57.54;101628.57;107486;1254;107431;-62
2023/10/13 08:17:02;;;;;;;31.60;12.30;;;;;;;15.47;57.39;101630.71;107575;1254;99236;-63
2023/10/13 08:19:39;;;;;;;31.70;10.80;;;;;;;15.46;57.54;101634.82;107542;1254;99713;-63
2023/10/13 08:27:48;;;;;;;35.40;10.60;;;;;;;15.46;57.45;101642.05;107532;1252;107455;-64
2023/10/13 08:30:29;;;;;;;32.30;10.40;;;;;;;15.48;57.34;101640.98;107549;1254;99176;-62
2023/10/13 08:32:59;;;;;;;25.90;10.90;;;;;;;15.46;57.31;101644.20;107609;1253;99707;-62
2023/10/13 08:38:04;;;;;;;32.60;10.30;;;;;;;15.52;57.36;101642.54;107591;1253;109749;-62
2023/10/13 08:41:29;;;;;;;32.00;10.20;;;;;;;15.58;57.43;101639.82;107578;1256;107807;-63
2023/10/13 08:43:50;;;;;;;36.10;10.20;;;;;;;15.60;57.45;101638.69;107499;1254;99208;-63
2023/10/13 08:46:28;;;;;;;25.10;10.00;;;;;;;15.64;57.54;101642.31;107561;1254;99713;-63
2023/10/13 08:49:14;;;;;;;24.70;9.80;;;;;;;15.72;57.49;101644.79;107521;1254;112487;-63
2023/10/13 08:51:43;;;;;;;41.90;11.50;;;;;;;15.84;57.51;101646.20;107509;1254;109940;-63
2023/10/13 08:54:19;;;;;;;42.00;11.70;;;;;;;15.96;57.49;101645.55;107518;1256;107620;-63
2023/10/13 08:57:03;;;;;;;37.80;12.30;;;;;;;16.07;57.09;101645.23;107534;1254;99186;-63
2023/10/13 08:59:38;;;;;;;;;;;;;;;16.15;56.88;101647.23;107537;1256;99265;-63
2023/10/13 09:02:17;;;;;;;42.60;12.90;;;;;;;16.24;56.91;101648.11;107546;1254;112882;-63
2023/10/13 09:04:47;;;;;;;40.30;13.10;;;;;;;16.39;56.91;101648.11;107495;1253;109869;-63
2023/10/13 09:07:16;;;;;;;40.70;15.10;;;;;;;16.53;56.68;101647.92;107564;1256;108819;-63
2023/10/13 09:17:48;;;;;;;48.00;14.30;;;;;;;17.19;55.83;101643.70;107524;1254;109887;-63
2023/10/13 09:25:38;;;;;;;52.00;14.50;;;;;;;17.30;55.94;101646.87;107537;1251;99741;-63
2023/10/13 09:28:15;;;;;;;43.40;14.10;;;;;;;17.30;56.08;101647.64;107633;1253;113478;-63
2023/10/13 09:30:48;;;;;;;41.70;14.00;;;;;;;17.27;56.02;101650.89;107537;1254;109368;-63
2023/10/13 09:33:32;;;;;;;41.00;13.40;;;;;;;17.25;56.13;101651.09;107491;1256;107750;-64
2023/10/13 09:36:04;;;;;;;53.90;15.40;;;;;;;17.24;56.30;101650.67;107410;1256;99179;-62
2023/10/13 09:38:36;;;;;;;48.20;14.60;;;;;;;17.25;56.39;101653.61;107551;1254;99137;-64
2023/10/13 09:43:57;;;;;;;47.60;13.00;;;;;;;17.29;56.70;101651.52;107496;1256;109976;-63
2023/10/13 09:46:28;;;;;;;45.00;15.60;;;;;;;17.36;56.69;101649.18;107588;1254;106695;-63
2023/10/13 09:49:15;;;;;;;36.10;14.80;;;;;;;17.39;56.51;101647.83;107490;1255;99272;-64
2023/10/13 09:51:45;;;;;;;37.20;14.00;;;;;;;17.43;56.62;101647.23;107510;1254;100189;-63
2023/10/13 09:55:08;;;;;;;35.10;13.80;;;;;;;17.50;56.69;101644.86;107502;1256;113440;-62
2023/10/13 09:57:57;;;;;;;44.40;13.90;;;;;;;17.68;56.57;101641.53;104119;1292;636149;-64
2023/10/13 10:03:15;;;;;;;42.10;14.20;;;;;;;17.91;56.32;101637.64;106652;1266;95846;-63
2023/10/13 10:06:03;;;;;;;39.40;14.20;;;;;;;18.01;56.12;101635.17;106604;1267;107180;-63
2023/10/13 10:08:38;;;;;;;42.40;13.40;;;;;;;18.13;55.97;101632.60;106637;1267;109415;-62
2023/10/13 10:11:40;;;;;;;47.10;14.80;;;;;;;18.25;55.66;101624.09;106338;1263;474575;-63
2023/10/13 10:14:28;;;;;;;56.80;16.00;;;;;;;18.40;55.40;101618.34;106704;1267;98286;-63
2023/10/13 10:17:10;;;;;;;42.10;16.10;;;;;;;18.57;55.13;101613.20;106734;1263;96390;-64
2023/10/13 10:19:54;;;;;;;42.40;14.60;;;;;;;18.72;54.29;101615.71;106759;1264;107740;-62
2023/10/13 10:22:35;;;;;;;37.90;13.60;;;;;;;18.87;54.30;101613.95;106632;1264;110241;-63
2023/10/13 10:25:25;;;;;;;30.40;13.00;;;;;;;19.10;54.34;101613.38;106660;1264;107371;-63
2023/10/13 10:27:57;;;;;;;48.90;12.40;;;;;;;19.31;53.79;101610.35;106719;1264;95889;-63
2023/10/13 10:30:29;;;;;;;34.00;12.80;;;;;;;19.40;53.25;101608.77;106675;1264;95725;-63
2023/10/13 10:33:06;;;;;;;24.60;10.80;;;;;;;20.08;52.92;101604.84;106695;1264;109654;-63
2023/10/13 10:35:36;;;;;;;37.30;11.90;;;;;;;20.71;52.25;101607.73;106721;1266;109344;-63
2023/10/13 10:38:38;;;;;;;21.60;8.70;;;;;;;20.90;51.65;101601.88;106768;1263;107807;-62
2023/10/13 10:41:04;;;;;;;25.90;9.00;;;;;;;20.98;51.99;101590.11;106692;1264;95828;-62
2023/10/13 10:43:42;;;;;;;24.80;8.30;;;;;;;20.98;51.79;101587.20;106664;1267;95824;-63
2023/10/13 10:46:28;;;;;;;22.50;9.00;;;;;;;20.93;51.52;101587.96;106679;1264;108275;-62
2023/10/13 10:49:00;;;;;;;24.30;9.30;;;;;;;20.94;51.64;101584.79;106698;1263;108481;-63
2023/10/13 10:51:31;;;;;;;30.40;9.30;;;;;;;21.00;51.70;101583.49;107225;1258;107978;-63
2023/10/13 10:54:13;;;;;;;23.90;9.10;;;;;;;21.09;51.76;101577.70;107231;1258;95789;-63
2023/10/13 10:56:41;;;;;;;29.00;7.90;;;;;;;21.22;51.28;101579.58;107216;1257;95955;-63
2023/10/13 10:59:19;;;;;;;25.10;9.10;;;;;;;21.36;51.09;101568.79;107243;1257;108667;-63
2023/10/13 11:01:47;;;;;;;20.00;8.20;;;;;;;21.50;50.87;101566.82;107207;1257;110131;-63
2023/10/13 11:06:56;;;;;;;25.10;7.90;;;;;;;22.14;50.34;101556.86;107344;1257;95791;-63
2023/10/13 11:09:36;;;;;;;18.20;7.20;;;;;;;22.52;49.69;101556.31;107202;1257;95914;-63
2023/10/13 11:12:15;;;;;;;20.00;6.80;;;;;;;22.76;50.05;101556.10;107254;1258;109503;-63
2023/10/13 11:14:51;;;;;;;22.80;6.20;;;;;;;23.26;49.85;101555.38;107329;1257;110126;-62
2023/10/13 11:20:17;;;;;;;18.80;5.70;;;;;;;23.57;49.01;101554.75;107258;1257;95819;-64
2023/10/13 11:22:50;;;;;;;18.00;6.10;;;;;;;23.59;48.67;101549.36;107377;1256;95830;-64
2023/10/13 11:25:29;;;;;;;12.40;5.50;;;;;;;23.71;48.24;101549.11;107318;1257;108975;-62
2023/10/13 11:28:20;;;;;;;14.30;4.90;;;;;;;23.98;47.89;101548.09;107389;1257;111027;-63
2023/10/13 11:30:52;;;;;;;20.70;5.90;;;;;;;24.28;47.57;101542.93;107247;1257;108467;-63
2023/10/13 11:33:23;;;;;;;14.20;5.00;;;;;;;24.55;47.53;101544.77;107349;1257;95816;-63
2023/10/13 11:38:28;;;;;;;13.10;5.40;;;;;;;25.25;46.10;101535.96;107282;1257;108201;-63
2023/10/13 11:43:52;;;;;;;13.20;5.30;;;;;;;25.54;44.41;101522.90;107241;1257;106925;-63
2023/10/13 11:51:51;;;;;;;16.50;5.60;;;;;;;25.70;43.36;101524.79;107247;1257;109041;-63
2023/10/13 11:54:21;;;;;;;13.50;5.20;;;;;;;25.67;43.32;101523.90;107095;1257;110017;-63
2023/10/13 11:56:51;;;;;;;16.40;5.70;;;;;;;25.75;43.47;101526.41;107226;1257;108329;-63
2023/10/13 11:59:24;;;;;;;11.00;5.20;;;;;;;25.86;43.34;101525.20;107279;1256;95797;-63
2023/10/13 12:04:51;;;;;;;13.20;4.30;;;;;;;26.23;41.97;101523.95;107342;1257;109266;-63
2023/10/13 12:07:40;;;;;;;13.00;5.10;;;;;;;26.42;40.61;101520.17;107270;1259;109987;-63
2023/10/13 12:10:33;;;;;;;16.80;4.90;;;;;;;26.50;41.31;101522.27;107212;1256;108237;-63
2023/10/13 12:13:10;;;;;;;;;;;;;;;26.74;40.63;101517.58;107276;1258;95797;-63
2023/10/13 12:15:48;;;;;;;15.40;5.00;;;;;;;27.00;40.80;101512.24;107211;1257;95829;-64
2023/10/13 12:18:19;;;;;;;15.60;5.20;;;;;;;27.36;40.14;101516.59;107318;1255;109074;-64
2023/10/13 12:20:49;;;;;;;78.20;7.00;;;;;;;27.71;39.71;101516.19;107372;1256;109068;-66
2023/10/13 12:23:20;;;;;;;30.10;4.70;;;;;;;28.16;38.55;101510.27;107214;1257;108195;-63
2023/10/13 12:25:54;;;;;;;15.70;4.80;;;;;;;28.61;37.87;101518.45;107222;1260;95842;-63
2023/10/13 12:28:26;;;;;;;11.30;4.80;;;;;;;28.70;35.84;101516.63;107193;1257;95896;-63
2023/10/13 12:30:57;;;;;;;14.30;4.60;;;;;;;29.06;36.69;101516.20;107233;1257;109162;-63
2023/10/13 12:33:36;;;;;;;14.40;5.30;;;;;;;29.72;35.86;101511.23;107254;1256;109056;-63
2023/10/13 12:36:09;;;;;;;13.00;5.40;;;;;;;29.56;35.40;101518.52;107218;1257;108242;-61
2023/10/13 12:52:16;;;;;;;16.70;5.40;;;;;;;31.83;32.02;101526.58;107234;1257;95884;-63
2023/10/13 12:57:27;;;;;;;41.80;5.50;;;;;;;33.04;30.47;101523.63;107265;1256;108417;-64
2023/10/13 12:59:55;;;;;;;11.10;4.90;;;;;;;32.77;29.91;101525.05;107111;1256;109988;-67
2023/10/13 13:02:26;;;;;;;11.60;4.30;;;;;;;31.98;30.28;101521.96;107185;1256;108305;-64
2023/10/13 13:05:02;;;;;;;12.90;4.40;;;;;;;32.01;30.74;101518.70;107171;1257;95710;-63
2023/10/13 13:07:32;;;;;;;29.10;5.10;;;;;;;32.71;30.13;101519.33;107188;1257;95797;-63
2023/10/13 13:10:00;;;;;;;13.00;4.50;;;;;;;33.31;29.66;101517.52;107236;1256;108647;-65
2023/10/13 13:12:29;;;;;;;16.10;4.90;;;;;;;33.81;28.80;101521.79;107229;1255;110147;-63
2023/10/13 13:14:57;;;;;;;20.60;4.80;;;;;;;34.34;28.16;101519.66;107299;1255;108057;-62
2023/10/13 13:17:25;;;;;;;17.10;4.60;;;;;;;34.80;27.53;101521.65;107350;1256;95815;-62
2023/10/13 13:19:53;;;;;;;37.80;4.60;;;;;;;35.05;27.00;101518.92;107346;1257;95861;-62
2023/10/13 13:22:22;;;;;;;13.80;4.90;;;;;;;35.20;26.97;101518.15;107259;1256;108233;-63
2023/10/13 13:24:52;;;;;;;16.80;4.50;;;;;;;35.43;26.30;101519.86;107153;1257;109402;-64
2023/10/13 13:27:22;;;;;;;13.50;4.60;;;;;;;35.51;26.15;101517.83;107185;1260;108390;-63
2023/10/13 13:29:51;;;;;;;39.80;4.80;;;;;;;35.51;25.55;101513.67;107169;1256;95772;-64
2023/10/13 13:32:28;;;;;;;13.20;4.30;;;;;;;35.44;25.71;101511.48;107177;1260;95823;-63
2023/10/13 13:35:04;;;;;;;12.00;4.40;;;;;;;35.21;25.56;101511.38;107228;1256;109307;-63
2023/10/13 13:37:32;;;;;;;17.80;4.60;;;;;;;35.22;26.12;101510.81;107168;1257;109786;-64
2023/10/13 13:40:18;;;;;;;16.50;5.00;;;;;;;35.57;25.90;101511.86;107200;1256;107620;-64
2023/10/13 13:42:46;;;;;;;11.30;4.70;;;;;;;35.71;25.49;101514.13;107325;1256;95819;-64
2023/10/13 13:45:22;;;;;;;13.30;4.60;;;;;;;35.77;25.27;101512.30;107334;1257;95801;-64
2023/10/13 13:47:53;;;;;;;15.80;5.10;;;;;;;35.94;25.34;101515.35;107259;1256;108576;-63
2023/10/13 13:50:28;;;;;;;10.50;4.70;;;;;;;36.08;25.29;101507.46;107232;1257;109567;-64
2023/10/13 13:52:57;;;;;;;17.80;5.00;;;;;;;36.05;24.73;101510.95;107161;1256;108364;-63
2023/10/13 13:55:31;;;;;;;13.10;4.50;;;;;;;35.87;24.49;101508.83;107183;1256;95938;-63
2023/10/13 13:57:59;;;;;;;17.50;6.40;;;;;;;35.71;25.02;101508.52;107310;1256;95806;-63
2023/10/13 14:00:37;;;;;;;16.40;5.00;;;;;;;35.97;25.65;101505.92;107394;1255;109446;-63
2023/10/13 14:03:13;;;;;;;11.80;4.70;;;;;;;36.29;25.36;101504.27;107346;1256;109219;-62
2023/10/13 14:05:43;;;;;;;13.50;5.00;;;;;;;36.51;24.73;101501.87;107653;1254;107456;-63
2023/10/13 14:08:15;;;;;;;12.70;4.70;;;;;;;36.61;24.08;101502.72;107574;1253;95810;-64
2023/10/13 14:13:48;;;;;;;19.20;5.10;;;;;;;36.25;24.27;101495.90;107656;1253;111185;-64
2023/10/13 14:16:20;;;;;;;15.60;5.40;;;;;;;35.78;24.41;101501.33;107708;1253;109965;-64
2023/10/13 14:18:52;;;;;;;16.60;6.20;;;;;;;35.67;25.02;101498.31;107541;1257;107492;-63
2023/10/13 14:21:24;;;;;;;22.80;6.20;;;;;;;35.73;24.91;101494.69;107520;1253;96519;-63
2023/10/13 14:23:55;;;;;;;21.90;6.20;;;;;;;35.73;25.14;101497.60;107636;1253;96553;-64
2023/10/13 14:26:26;;;;;;;15.60;5.70;;;;;;;35.64;24.78;101500.17;107679;1252;110338;-64
2023/10/13 14:29:02;;;;;;;17.80;5.30;;;;;;;35.51;25.18;101494.71;107652;1254;110232;-63
2023/10/13 14:31:32;;;;;;;21.10;6.00;;;;;;;35.35;25.26;101494.59;107663;1253;107948;-63
2023/10/13 14:34:00;;;;;;;17.60;5.70;;;;;;;35.17;25.17;101494.05;107690;1253;96368;-65
2023/10/13 14:36:29;;;;;;;24.40;6.50;;;;;;;34.90;25.43;101493.52;107661;1252;96392;-64
2023/10/13 14:38:57;;;;;;;23.90;6.80;;;;;;;34.29;25.90;101496.58;107675;1251;110472;-63
2023/10/13 14:41:26;;;;;;;18.20;6.30;;;;;;;33.33;26.92;101496.33;107613;1253;109770;-64
2023/10/13 14:43:56;;;;;;;24.80;7.40;;;;;;;32.38;28.10;101493.83;107532;1253;107199;-63
2023/10/13 14:46:25;;;;;;;19.40;6.40;;;;;;;31.41;28.80;101494.80;107545;1256;96477;-63
2023/10/13 14:48:54;;;;;;;17.30;5.80;;;;;;;30.48;30.08;101497.51;107649;1253;96582;-63
2023/10/13 14:51:25;;;;;;;24.10;6.60;;;;;;;29.65;30.70;101503.82;107649;1253;110609;-64
2023/10/13 14:53:56;;;;;;;18.50;6.20;;;;;;;28.91;31.54;101503.79;107667;1251;109653;-63
2023/10/13 14:56:26;;;;;;;22.80;7.20;;;;;;;28.18;32.41;101502.65;107650;1254;108176;-63
2023/10/13 14:58:55;;;;;;;32.10;7.20;;;;;;;27.54;33.49;101502.30;107596;1255;96363;-63
2023/10/13 15:01:26;;;;;;;31.60;7.10;;;;;;;27.05;34.58;101499.73;107695;1253;96557;-63
2023/10/13 15:03:55;;;;;;;36.60;8.00;;;;;;;26.57;35.60;101501.73;107614;1253;109907;-63
2023/10/13 15:06:28;;;;;;;21.60;8.30;;;;;;;26.12;36.48;101503.36;107554;1253;110136;-63
2023/10/13 15:08:57;;;;;;;;;;;;;;;25.67;37.26;101502.86;107535;1253;106792;-62
2023/10/13 15:11:35;;;;;;;24.00;8.50;;;;;;;25.18;37.61;101508.49;107640;1253;96533;-62
2023/10/13 15:14:16;;;;;;;24.70;7.30;;;;;;;24.64;38.67;101510.21;107646;1253;96818;-63
2023/10/13 15:16:45;;;;;;;23.50;7.00;;;;;;;24.25;39.43;101513.82;107628;1253;110533;-63